createdAt,value
2022-11-07T00:01:16.490Z,10.50
2022-11-07T00:03:43.375Z,10.60
2022-11-07T00:06:10.606Z,10.60
2022-11-07T00:08:37.551Z,10.60
2022-11-07T00:11:04.852Z,10.60
2022-11-07T00:13:31.680Z,10.70
2022-11-07T00:15:59.779Z,10.70
2022-11-07T00:18:26.431Z,10.60
2022-11-07T00:20:53.562Z,10.70
2022-11-07T00:23:20.767Z,10.70
2022-11-07T00:25:47.663Z,10.70
2022-11-07T00:28:14.372Z,10.70
2022-11-07T00:30:41.844Z,10.70
2022-11-07T00:33:08.940Z,10.70
2022-11-07T00:35:36.201Z,10.70
2022-11-07T00:38:03.458Z,10.80
2022-11-07T00:40:30.282Z,10.80
2022-11-07T00:42:57.110Z,10.80
2022-11-07T00:45:24.223Z,10.80
2022-11-07T00:47:52.071Z,10.90
2022-11-07T00:50:19.489Z,11.00
2022-11-07T00:52:49.521Z,11.10
2022-11-07T00:55:16.451Z,11.20
2022-11-07T00:57:43.118Z,11.20
2022-11-07T01:00:10.784Z,11.30
2022-11-07T01:02:37.745Z,11.30
2022-11-07T01:05:10.810Z,11.30
2022-11-07T01:07:38.571Z,11.40
2022-11-07T01:10:06.119Z,11.30
2022-11-07T01:12:36.106Z,11.30
2022-11-07T01:15:04.111Z,11.30
2022-11-07T01:17:30.916Z,11.30
2022-11-07T01:19:57.644Z,11.40
2022-11-07T01:22:27.099Z,11.40
2022-11-07T01:24:54.313Z,11.40
2022-11-07T01:27:21.040Z,11.50
2022-11-07T01:29:47.817Z,11.50
2022-11-07T01:32:14.493Z,11.50
2022-11-07T01:34:41.249Z,11.50
2022-11-07T01:37:08.020Z,11.50
2022-11-07T01:39:34.775Z,11.50
2022-11-07T01:42:01.530Z,11.50
2022-11-07T01:44:28.267Z,11.40
2022-11-07T01:46:56.368Z,11.40
2022-11-07T01:49:31.444Z,11.40
2022-11-07T01:52:16.932Z,11.40
2022-11-07T01:54:55.279Z,11.40
2022-11-07T01:57:46.190Z,11.40
2022-11-07T02:00:15.165Z,11.40
2022-11-07T02:02:42.158Z,11.40
2022-11-07T02:05:09.235Z,11.50
2022-11-07T02:07:35.994Z,11.50
2022-11-07T02:10:03.248Z,11.60
2022-11-07T02:12:30.316Z,11.60
2022-11-07T02:14:57.124Z,11.60
2022-11-07T02:17:24.025Z,11.60
2022-11-07T02:19:52.777Z,11.60
2022-11-07T02:22:25.706Z,11.60
2022-11-07T02:24:54.166Z,11.70
2022-11-07T02:27:21.689Z,11.70
2022-11-07T02:29:50.003Z,11.80
2022-11-07T02:32:17.246Z,11.80
2022-11-07T02:34:44.110Z,11.80
2022-11-07T02:37:24.062Z,11.80
2022-11-07T02:39:51.150Z,11.80
2022-11-07T02:42:17.909Z,11.80
2022-11-07T02:44:44.889Z,11.80
2022-11-07T02:47:11.606Z,11.80
2022-11-07T02:49:38.852Z,11.70
2022-11-07T02:52:05.938Z,11.70
2022-11-07T02:54:32.759Z,11.70
2022-11-07T02:56:59.470Z,11.70
2022-11-07T02:59:27.249Z,11.70
2022-11-07T03:01:54.402Z,11.80
2022-11-07T03:04:21.411Z,11.80
2022-11-07T03:06:48.215Z,11.80
2022-11-07T03:09:15.049Z,11.80
2022-11-07T03:11:42.069Z,11.80
2022-11-07T03:14:09.328Z,11.80
2022-11-07T03:16:36.033Z,11.80
2022-11-07T03:19:02.719Z,11.80
2022-11-07T03:21:29.590Z,11.70
2022-11-07T03:23:56.376Z,11.80
2022-11-07T03:26:23.570Z,11.80
2022-11-07T03:28:50.524Z,11.80
2022-11-07T03:31:17.650Z,11.80
2022-11-07T03:33:44.394Z,11.80
2022-11-07T03:36:11.566Z,11.70
2022-11-07T03:38:38.887Z,11.70
2022-11-07T03:41:05.884Z,11.70
2022-11-07T03:43:32.770Z,11.70
2022-11-07T03:45:59.491Z,11.80
2022-11-07T03:48:26.231Z,11.80
2022-11-07T03:50:52.988Z,11.80
2022-11-07T03:53:25.532Z,11.80
2022-11-07T03:55:54.713Z,11.80
2022-11-07T03:58:21.582Z,11.80
2022-11-07T04:00:48.301Z,11.80
2022-11-07T04:03:15.132Z,11.80
2022-11-07T04:05:41.990Z,11.80
2022-11-07T04:08:08.733Z,11.80
2022-11-07T04:10:35.910Z,11.80
2022-11-07T04:13:21.049Z,11.80
2022-11-07T04:16:06.147Z,11.90
2022-11-07T04:18:32.963Z,11.90
2022-11-07T04:20:59.757Z,11.90
2022-11-07T04:23:26.922Z,11.90
2022-11-07T04:26:12.315Z,11.90
2022-11-07T04:28:39.367Z,12.00
2022-11-07T04:31:06.449Z,12.00
2022-11-07T04:33:33.181Z,12.00
2022-11-07T04:35:59.907Z,12.00
2022-11-07T04:38:26.642Z,12.00
2022-11-07T04:40:56.906Z,12.10
2022-11-07T04:43:25.012Z,12.10
2022-11-07T04:45:51.829Z,12.00
2022-11-07T04:48:18.660Z,12.00
2022-11-07T04:50:45.587Z,12.00
2022-11-07T04:53:17.221Z,12.10
2022-11-07T04:55:44.045Z,12.10
2022-11-07T04:58:10.939Z,12.10
2022-11-07T05:00:37.658Z,12.20
2022-11-07T05:03:04.535Z,12.20
2022-11-07T05:05:31.399Z,12.20
2022-11-07T05:07:58.138Z,12.30
2022-11-07T05:10:27.247Z,12.30
2022-11-07T05:12:54.910Z,12.30
2022-11-07T05:15:21.793Z,12.30
2022-11-07T05:17:48.656Z,12.30
2022-11-07T05:20:35.094Z,12.30
2022-11-07T05:23:16.119Z,12.40
2022-11-07T05:25:47.983Z,12.40
2022-11-07T05:28:16.801Z,12.40
2022-11-07T05:30:44.150Z,12.40
2022-11-07T05:33:11.942Z,12.40
2022-11-07T05:35:39.094Z,12.40
2022-11-07T05:38:05.844Z,12.40
2022-11-07T05:40:34.277Z,12.40
2022-11-07T05:43:06.065Z,12.50
2022-11-07T05:45:34.114Z,12.50
2022-11-07T05:48:01.589Z,12.50
2022-11-07T05:50:29.154Z,12.40
2022-11-07T05:52:55.964Z,12.40
2022-11-07T05:55:22.962Z,12.40
2022-11-07T05:57:49.894Z,12.40
2022-11-07T06:00:17.082Z,12.30
2022-11-07T06:02:44.086Z,12.40
2022-11-07T06:05:11.075Z,12.30
2022-11-07T06:07:38.648Z,12.40
2022-11-07T06:10:06.626Z,12.30
2022-11-07T06:12:33.343Z,12.40
2022-11-07T06:15:00.003Z,12.40
2022-11-07T06:17:26.750Z,12.30
2022-11-07T06:19:53.439Z,12.30
2022-11-07T06:22:20.176Z,12.30
2022-11-07T06:24:46.968Z,12.30
2022-11-07T06:27:14.498Z,12.20
2022-11-07T06:29:41.376Z,12.20
2022-11-07T06:32:08.121Z,12.20
2022-11-07T06:34:34.909Z,12.10
2022-11-07T06:37:03.526Z,12.20
2022-11-07T06:39:30.558Z,12.20
2022-11-07T06:41:57.315Z,12.10
2022-11-07T06:44:24.080Z,12.10
2022-11-07T06:46:51.112Z,12.10
2022-11-07T06:49:17.994Z,12.10
2022-11-07T06:51:47.843Z,12.00
2022-11-07T06:54:15.306Z,12.10
2022-11-07T06:56:42.198Z,12.10
2022-11-07T06:59:08.997Z,12.10
2022-11-07T07:01:35.956Z,12.10
2022-11-07T07:04:02.851Z,12.10
2022-11-07T07:06:29.980Z,12.20
2022-11-07T07:08:57.580Z,12.20
2022-11-07T07:11:24.351Z,12.30
2022-11-07T07:13:51.412Z,12.30
2022-11-07T07:16:18.199Z,12.30
2022-11-07T07:18:45.362Z,12.30
2022-11-07T07:21:13.264Z,12.40
2022-11-07T07:23:40.592Z,12.40
2022-11-07T07:26:10.077Z,12.50
2022-11-07T07:28:37.457Z,12.60
2022-11-07T07:31:13.577Z,12.70
2022-11-07T07:33:41.074Z,12.70
2022-11-07T07:36:08.385Z,12.80
2022-11-07T07:38:35.242Z,12.90
2022-11-07T07:41:01.937Z,13.00
2022-11-07T07:43:28.726Z,13.00
2022-11-07T07:46:01.631Z,13.10
2022-11-07T07:48:28.653Z,13.20
2022-11-07T07:50:55.515Z,13.20
2022-11-07T07:53:22.443Z,13.20
2022-11-07T07:55:49.363Z,13.30
2022-11-07T07:58:16.209Z,13.30
2022-11-07T08:00:43.019Z,13.40
2022-11-07T08:03:11.102Z,13.40
2022-11-07T08:05:38.794Z,13.40
2022-11-07T08:08:06.607Z,13.50
2022-11-07T08:10:42.542Z,13.50
2022-11-07T08:13:10.377Z,13.50
2022-11-07T08:15:37.680Z,13.50
2022-11-07T08:18:04.825Z,13.50
2022-11-07T08:20:31.563Z,13.60
2022-11-07T08:23:02.893Z,13.60
2022-11-07T08:25:30.096Z,13.60
2022-11-07T08:27:56.816Z,13.70
2022-11-07T08:30:23.518Z,13.70
2022-11-07T08:32:50.363Z,13.70
2022-11-07T08:35:17.234Z,13.70
2022-11-07T08:37:44.046Z,13.80
2022-11-07T08:40:11.309Z,13.80
2022-11-07T08:42:38.000Z,13.80
2022-11-07T08:45:05.227Z,13.80
2022-11-07T08:47:31.989Z,13.90
2022-11-07T08:49:58.929Z,13.90
2022-11-07T08:52:25.656Z,13.90
2022-11-07T08:54:52.834Z,13.90
2022-11-07T08:57:19.715Z,14.00
2022-11-07T08:59:46.374Z,14.00
2022-11-07T09:03:08.351Z,14.00
2022-11-07T09:05:00.328Z,14.10
2022-11-07T09:07:27.079Z,14.20
2022-11-07T09:09:53.840Z,14.30
2022-11-07T09:12:20.638Z,14.30
2022-11-07T09:14:47.551Z,14.40
2022-11-07T09:17:14.230Z,14.50
2022-11-07T09:19:40.951Z,14.60
2022-11-07T09:22:07.848Z,14.60
2022-11-07T09:24:34.742Z,14.60
2022-11-07T09:27:01.601Z,14.70
2022-11-07T09:29:28.379Z,14.70
2022-11-07T09:31:55.145Z,14.70
2022-11-07T09:34:22.015Z,14.90
2022-11-07T09:36:48.939Z,14.90
2022-11-07T09:39:15.586Z,14.80
2022-11-07T09:42:13.482Z,14.80
2022-11-07T09:44:42.988Z,14.90
2022-11-07T09:47:17.112Z,15.00
2022-11-07T09:49:46.084Z,15.10
2022-11-07T09:52:16.817Z,15.10
2022-11-07T09:55:01.556Z,15.10
2022-11-07T09:57:29.127Z,15.10
2022-11-07T09:59:59.881Z,15.10
2022-11-07T10:02:30.529Z,15.10
2022-11-07T10:04:58.961Z,15.00
2022-11-07T10:07:40.442Z,15.00
2022-11-07T10:10:13.740Z,14.90
2022-11-07T10:12:53.026Z,14.80
2022-11-07T10:15:27.913Z,14.80
2022-11-07T10:18:09.594Z,14.70
2022-11-07T10:21:37.049Z,14.70
2022-11-07T10:24:27.114Z,14.60
2022-11-07T10:26:53.846Z,14.70
2022-11-07T10:29:21.493Z,14.70
2022-11-07T10:31:54.151Z,14.70
2022-11-07T10:34:33.121Z,14.70
2022-11-07T10:37:00.265Z,14.70
2022-11-07T10:39:28.353Z,14.80
2022-11-07T10:42:07.832Z,14.80
2022-11-07T10:44:34.728Z,14.80
2022-11-07T10:47:03.641Z,14.80
2022-11-07T10:49:31.428Z,14.80
2022-11-07T10:52:09.101Z,14.70
2022-11-07T10:54:36.067Z,14.80
2022-11-07T10:57:08.569Z,14.80
2022-11-07T10:59:37.188Z,14.80
2022-11-07T11:02:09.553Z,14.90
2022-11-07T11:04:37.085Z,14.90
2022-11-07T11:07:05.686Z,15.00
2022-11-07T11:09:33.741Z,15.00
2022-11-07T11:12:27.683Z,15.00
2022-11-07T11:15:11.541Z,15.00
2022-11-07T11:17:38.337Z,14.90
2022-11-07T11:20:05.587Z,14.90
2022-11-07T11:22:32.259Z,14.90
2022-11-07T11:25:26.384Z,14.90
2022-11-07T11:28:07.004Z,15.00
2022-11-07T11:30:33.689Z,15.10
2022-11-07T11:33:17.643Z,15.20
2022-11-07T11:35:48.003Z,15.30
2022-11-07T11:38:37.493Z,15.30
2022-11-07T11:41:24.515Z,15.30
2022-11-07T11:43:55.586Z,15.30
2022-11-07T11:46:31.114Z,15.30
2022-11-07T11:49:07.098Z,15.40
2022-11-07T11:51:33.930Z,15.50
2022-11-07T11:54:01.010Z,15.50
2022-11-07T11:56:34.782Z,15.50
2022-11-07T11:59:13.130Z,15.40
2022-11-07T12:01:44.422Z,15.30
2022-11-07T12:04:35.902Z,15.30
2022-11-07T12:07:29.905Z,15.40
2022-11-07T12:10:22.459Z,15.40
2022-11-07T12:13:10.913Z,15.50
2022-11-07T12:15:49.599Z,15.60
2022-11-07T12:18:33.751Z,15.50
2022-11-07T12:21:15.149Z,15.50
2022-11-07T12:24:11.161Z,15.50
2022-11-07T12:26:58.293Z,15.50
2022-11-07T12:29:45.604Z,15.30
2022-11-07T12:32:41.382Z,15.20
2022-11-07T12:35:14.057Z,15.10
2022-11-07T12:37:57.248Z,15.00
2022-11-07T12:40:31.021Z,15.00
2022-11-07T12:43:22.584Z,15.00
2022-11-07T12:46:12.046Z,14.90
2022-11-07T12:48:47.750Z,15.00
2022-11-07T12:51:51.561Z,15.00
2022-11-07T12:54:30.154Z,15.00
2022-11-07T12:56:57.389Z,15.10
2022-11-07T12:59:28.521Z,15.20
2022-11-07T13:01:57.969Z,15.20
2022-11-07T13:04:47.504Z,15.30
2022-11-07T13:07:34.747Z,15.40
2022-11-07T13:10:10.216Z,15.70
2022-11-07T13:12:46.994Z,15.80
2022-11-07T13:15:13.794Z,16.00
2022-11-07T13:17:45.129Z,16.10
2022-11-07T13:20:21.126Z,16.10
2022-11-07T13:22:58.991Z,16.20
2022-11-07T13:25:33.384Z,16.30
2022-11-07T13:28:24.769Z,16.50
2022-11-07T13:30:56.919Z,16.70
2022-11-07T13:33:25.927Z,16.70
2022-11-07T13:35:54.737Z,16.60
2022-11-07T13:38:23.348Z,16.60
2022-11-07T13:40:52.554Z,16.50
2022-11-07T13:43:27.661Z,16.50
2022-11-07T13:45:59.329Z,16.40
2022-11-07T13:48:41.790Z,16.40
2022-11-07T13:51:33.516Z,16.40
2022-11-07T13:54:12.456Z,16.30
2022-11-07T13:56:58.435Z,16.20
2022-11-07T13:59:39.854Z,16.20
2022-11-07T14:02:06.953Z,16.20
2022-11-07T14:04:40.522Z,16.10
2022-11-07T14:07:16.791Z,16.00
2022-11-07T14:09:43.671Z,15.90
2022-11-07T14:12:17.832Z,15.90
2022-11-07T14:14:44.626Z,15.90
2022-11-07T14:17:14.388Z,15.90
2022-11-07T14:19:41.078Z,15.80
2022-11-07T14:22:21.399Z,15.80
2022-11-07T14:24:56.133Z,15.70
2022-11-07T14:27:23.577Z,15.60
2022-11-07T14:29:57.879Z,15.40
2022-11-07T14:32:29.370Z,15.40
2022-11-07T14:34:58.367Z,15.40
2022-11-07T14:37:26.611Z,15.40
2022-11-07T14:39:53.286Z,15.40
2022-11-07T14:42:22.030Z,15.50
2022-11-07T14:44:54.916Z,15.40
2022-11-07T14:47:24.173Z,15.40
2022-11-07T14:49:51.732Z,15.50
2022-11-07T14:52:27.319Z,15.50
2022-11-07T14:55:04.176Z,15.50
2022-11-07T14:57:32.439Z,15.50
2022-11-07T14:59:59.105Z,15.50
2022-11-07T15:02:30.758Z,15.60
2022-11-07T15:05:06.469Z,15.60
2022-11-07T15:07:46.121Z,15.60
2022-11-07T15:10:15.935Z,15.50
2022-11-07T15:12:52.779Z,15.50
2022-11-07T15:15:21.073Z,15.50
2022-11-07T15:17:49.868Z,15.40
2022-11-07T15:20:31.449Z,15.40
2022-11-07T15:23:24.561Z,15.40
2022-11-07T15:25:56.195Z,15.40
2022-11-07T15:28:28.047Z,15.40
2022-11-07T15:31:01.166Z,15.40
2022-11-07T15:33:30.997Z,15.40
2022-11-07T15:35:59.223Z,15.30
2022-11-07T15:38:28.065Z,15.30
2022-11-07T15:40:54.946Z,15.30
2022-11-07T15:43:21.729Z,15.20
2022-11-07T15:45:49.361Z,15.20
2022-11-07T15:48:28.706Z,15.20
2022-11-07T15:50:55.660Z,15.20
2022-11-07T15:53:23.966Z,15.20
2022-11-07T15:55:55.149Z,15.20
2022-11-07T15:58:23.880Z,15.10
2022-11-07T16:00:51.230Z,15.20
2022-11-07T16:03:19.053Z,15.20
2022-11-07T16:05:46.511Z,15.20
2022-11-07T16:08:21.163Z,15.10
2022-11-07T16:10:50.444Z,15.10
2022-11-07T16:13:17.099Z,14.90
2022-11-07T16:15:45.787Z,14.70
2022-11-07T16:18:20.327Z,14.60
2022-11-07T16:20:47.624Z,14.50
2022-11-07T16:23:14.348Z,14.50
2022-11-07T16:25:41.812Z,14.40
2022-11-07T16:28:25.810Z,14.30
2022-11-07T16:30:52.690Z,14.30
2022-11-07T16:33:19.537Z,14.30
2022-11-07T16:35:48.400Z,14.30
2022-11-07T16:38:16.458Z,14.20
2022-11-07T16:40:43.482Z,14.20
2022-11-07T16:43:10.136Z,14.20
2022-11-07T16:45:37.453Z,14.20
2022-11-07T16:48:23.169Z,14.10
2022-11-07T16:50:50.039Z,14.10
2022-11-07T16:53:17.175Z,14.10
2022-11-07T16:55:49.469Z,14.00
2022-11-07T16:58:30.836Z,14.00
2022-11-07T17:00:59.062Z,13.90
2022-11-07T17:03:26.459Z,13.80
2022-11-07T17:05:57.133Z,13.70
2022-11-07T17:08:38.342Z,13.70
2022-11-07T17:11:05.502Z,13.70
2022-11-07T17:13:32.207Z,13.70
2022-11-07T17:15:58.919Z,13.70
2022-11-07T17:18:26.300Z,13.70
2022-11-07T17:20:56.425Z,13.70
2022-11-07T17:23:29.541Z,13.80
2022-11-07T17:25:59.694Z,13.80
2022-11-07T17:28:26.378Z,13.90
2022-11-07T17:30:53.192Z,13.80
2022-11-07T17:33:20.010Z,13.90
2022-11-07T17:35:46.682Z,13.90
2022-11-07T17:38:17.277Z,13.90
2022-11-07T17:40:44.321Z,14.00
2022-11-07T17:43:10.993Z,13.90
2022-11-07T17:45:37.700Z,14.00
2022-11-07T17:48:04.554Z,13.90
2022-11-07T17:50:31.428Z,13.90
2022-11-07T17:52:58.226Z,13.90
2022-11-07T17:55:25.521Z,14.00
2022-11-07T17:57:52.390Z,14.00
2022-11-07T18:00:21.202Z,14.00
2022-11-07T18:02:49.550Z,14.00
2022-11-07T18:05:17.362Z,14.10
2022-11-07T18:07:44.272Z,14.10
2022-11-07T18:10:12.345Z,14.10
2022-11-07T18:12:39.071Z,14.10
2022-11-07T18:15:06.608Z,14.20
2022-11-07T18:17:35.505Z,14.20
2022-11-07T18:20:04.106Z,14.30
2022-11-07T18:22:30.881Z,14.30
2022-11-07T18:24:57.553Z,14.40
2022-11-07T18:27:24.262Z,14.40
2022-11-07T18:29:50.930Z,14.40
2022-11-07T18:32:17.636Z,14.50
2022-11-07T18:34:44.405Z,14.50
2022-11-07T18:37:11.133Z,14.50
2022-11-07T18:39:38.882Z,14.50
2022-11-07T18:42:05.601Z,14.50
2022-11-07T18:44:32.292Z,14.50
2022-11-07T18:46:59.077Z,14.50
2022-11-07T18:49:26.030Z,14.50
2022-11-07T18:51:52.739Z,14.50
2022-11-07T18:54:20.218Z,14.50
2022-11-07T18:56:46.932Z,14.50
2022-11-07T18:59:13.598Z,14.50
2022-11-07T19:01:40.524Z,14.50
2022-11-07T19:04:08.483Z,14.50
2022-11-07T19:06:35.140Z,14.50
2022-11-07T19:09:02.033Z,14.60
2022-11-07T19:11:30.073Z,14.60
2022-11-07T19:13:59.745Z,14.70
2022-11-07T19:16:26.865Z,14.70
2022-11-07T19:18:53.841Z,14.80
2022-11-07T19:21:20.898Z,14.80
2022-11-07T19:23:48.362Z,14.80
2022-11-07T19:26:15.206Z,14.80
2022-11-07T19:28:41.875Z,14.80
2022-11-07T19:31:10.742Z,14.80
2022-11-07T19:33:37.422Z,14.90
2022-11-07T19:36:06.671Z,14.90
2022-11-07T19:38:33.916Z,14.80
2022-11-07T19:41:07.441Z,14.80
2022-11-07T19:43:34.697Z,14.80
2022-11-07T19:46:09.867Z,14.90
2022-11-07T19:48:36.804Z,14.90
2022-11-07T19:51:07.823Z,14.90
2022-11-07T19:53:34.529Z,14.90
2022-11-07T19:56:08.860Z,14.90
2022-11-07T19:58:38.885Z,14.90
2022-11-07T20:01:17.025Z,14.90
2022-11-07T20:03:45.010Z,14.90
2022-11-07T20:06:12.850Z,14.80
2022-11-07T20:08:39.829Z,14.90
2022-11-07T20:11:06.868Z,14.90
2022-11-07T20:13:33.764Z,14.90
2022-11-07T20:16:00.660Z,14.90
2022-11-07T20:18:27.313Z,14.90
2022-11-07T20:21:00.635Z,14.90
2022-11-07T20:23:27.297Z,14.90
2022-11-07T20:25:54.025Z,14.90
2022-11-07T20:28:20.813Z,14.90
2022-11-07T20:30:47.548Z,14.90
2022-11-07T20:33:14.439Z,14.90
2022-11-07T20:35:42.676Z,14.90
2022-11-07T20:38:09.334Z,14.90
2022-11-07T20:40:37.089Z,14.90
2022-11-07T20:43:07.637Z,14.90
2022-11-07T20:45:34.865Z,14.90
2022-11-07T20:48:02.081Z,14.90
2022-11-07T20:50:29.258Z,15.00
2022-11-07T20:52:59.114Z,15.00
2022-11-07T20:55:27.078Z,15.00
2022-11-07T20:57:54.059Z,15.00
2022-11-07T21:00:20.837Z,15.00
2022-11-07T21:02:47.499Z,15.00
2022-11-07T21:05:18.483Z,15.00
2022-11-07T21:07:45.534Z,15.00
2022-11-07T21:10:12.600Z,15.00
2022-11-07T21:12:39.266Z,15.00
2022-11-07T21:15:06.948Z,15.00
2022-11-07T21:17:33.577Z,15.00
2022-11-07T21:20:00.235Z,15.00
2022-11-07T21:22:29.562Z,15.00
2022-11-07T21:24:56.809Z,15.00
2022-11-07T21:27:23.472Z,15.00
2022-11-07T21:29:50.174Z,15.00
2022-11-07T21:32:17.006Z,14.90
2022-11-07T21:34:46.252Z,14.90
2022-11-07T21:37:13.092Z,14.90
2022-11-07T21:39:39.805Z,14.90
2022-11-07T21:42:06.447Z,14.90
2022-11-07T21:44:33.132Z,14.90
2022-11-07T21:46:59.873Z,14.90
2022-11-07T21:49:26.759Z,14.90
2022-11-07T21:51:54.040Z,14.80
2022-11-07T21:54:20.702Z,14.90
2022-11-07T21:56:47.365Z,14.90
2022-11-07T21:59:14.128Z,14.90
2022-11-07T22:01:41.348Z,14.90
2022-11-07T22:04:10.858Z,14.90
2022-11-07T22:06:40.032Z,14.90
2022-11-07T22:09:07.669Z,14.90
2022-11-07T22:11:34.377Z,14.90
2022-11-07T22:14:01.056Z,14.90
2022-11-07T22:16:27.815Z,14.90
2022-11-07T22:18:54.574Z,14.90
2022-11-07T22:21:22.578Z,14.90
2022-11-07T22:23:49.344Z,14.90
2022-11-07T22:26:18.829Z,14.80
2022-11-07T22:28:46.452Z,14.90
2022-11-07T22:31:20.585Z,14.90
2022-11-07T22:33:47.442Z,14.90
2022-11-07T22:36:14.308Z,15.00
2022-11-07T22:38:41.094Z,15.00
2022-11-07T22:41:18.694Z,15.00
2022-11-07T22:43:45.446Z,14.90
2022-11-07T22:46:13.757Z,14.90
2022-11-07T22:48:40.852Z,14.90
2022-11-07T22:51:12.221Z,14.90
2022-11-07T22:53:39.166Z,14.90
2022-11-07T22:56:09.591Z,14.90
2022-11-07T22:58:36.320Z,14.90
2022-11-07T23:01:03.058Z,14.90
2022-11-07T23:03:30.693Z,14.90
2022-11-07T23:05:57.515Z,14.80
2022-11-07T23:08:24.162Z,14.80
2022-11-07T23:11:40.275Z,14.70
2022-11-07T23:13:47.984Z,14.70
2022-11-07T23:16:32.332Z,14.60
2022-11-07T23:19:00.100Z,14.60
2022-11-07T23:21:27.006Z,14.60
2022-11-07T23:23:54.530Z,14.60
2022-11-07T23:26:21.200Z,14.70
2022-11-07T23:28:47.869Z,14.70
2022-11-07T23:31:14.636Z,14.70
2022-11-07T23:33:41.609Z,14.70
2022-11-07T23:36:11.069Z,14.70
2022-11-07T23:38:37.774Z,14.70
2022-11-07T23:41:05.625Z,14.80
2022-11-07T23:43:32.955Z,14.80
2022-11-07T23:46:18.726Z,14.80
2022-11-07T23:49:04.205Z,14.80
2022-11-07T23:51:31.428Z,14.80
2022-11-07T23:54:17.043Z,14.80
2022-11-07T23:56:43.967Z,14.80
2022-11-07T23:59:29.649Z,14.80
